Aguanish, Canada
Current Conditions -  °F | °C
As of 9:00 AM on Saturday 25 Oct 2014 (Local Time) from CYNA Reporting Station
Overcast Overcast  
Wind Chill: 30°   Ceiling: 3800
Heat Index: 39°   Visibility: 9mi
Dew Point: 30°   Wind: 17mph
Humidity: 70%   Direction: 50°NE
Pressure: 29.69"   Gusts: 31mph
Location:  50.22°N, 62.08°W
Report Text: CYNA 251200Z AUTO 05015G27KT 9SM OVC038 04/M01 A2969 RMK SLP053
Loading
Personal Weather Stations






























Interactive Weather Map
Tropical Storm Tracking
New forecast layout! Learn more

10-Day Weather Forecast

Advertisements
Track Severe Weather on mobile